sensor_id;sensor_type;location;lat;lon;timestamp;P1;durP1;ratioP1;P2;durP2;ratioP2
56083;SDS011;41958;52.416;13.428;2023-02-28T00:01:03;8.45;;;4.13;;
56083;SDS011;41958;52.416;13.428;2023-02-28T00:03:28;9.18;;;4.50;;
56083;SDS011;41958;52.416;13.428;2023-02-28T00:05:53;7.85;;;3.85;;
56083;SDS011;41958;52.416;13.428;2023-02-28T00:08:18;7.30;;;4.05;;
56083;SDS011;41958;52.416;13.428;2023-02-28T00:10:44;7.28;;;4.40;;
56083;SDS011;41958;52.416;13.428;2023-02-28T00:13:09;7.03;;;3.85;;
56083;SDS011;41958;52.416;13.428;2023-02-28T00:15:34;8.15;;;4.25;;
56083;SDS011;41958;52.416;13.428;2023-02-28T00:18:00;6.63;;;3.78;;
56083;SDS011;41958;52.416;13.428;2023-02-28T00:20:25;7.25;;;3.80;;
56083;SDS011;41958;52.416;13.428;2023-02-28T00:22:52;6.25;;;3.22;;
56083;SDS011;41958;52.416;13.428;2023-02-28T00:25:18;5.75;;;3.35;;
56083;SDS011;41958;52.416;13.428;2023-02-28T00:27:46;6.10;;;3.50;;
56083;SDS011;41958;52.416;13.428;2023-02-28T00:30:13;5.22;;;3.20;;
56083;SDS011;41958;52.416;13.428;2023-02-28T00:32:41;7.15;;;3.80;;
56083;SDS011;41958;52.416;13.428;2023-02-28T00:35:06;7.03;;;3.55;;
56083;SDS011;41958;52.416;13.428;2023-02-28T00:37:32;9.07;;;3.65;;
56083;SDS011;41958;52.416;13.428;2023-02-28T00:39:57;6.72;;;3.40;;
56083;SDS011;41958;52.416;13.428;2023-02-28T00:42:23;7.70;;;3.65;;
56083;SDS011;41958;52.416;13.428;2023-02-28T00:44:49;5.60;;;3.50;;
56083;SDS011;41958;52.416;13.428;2023-02-28T00:47:14;7.05;;;3.65;;
56083;SDS011;41958;52.416;13.428;2023-02-28T00:49:40;5.15;;;3.45;;
56083;SDS011;41958;52.416;13.428;2023-02-28T00:52:05;7.20;;;3.75;;
56083;SDS011;41958;52.416;13.428;2023-02-28T00:54:30;6.25;;;3.53;;
56083;SDS011;41958;52.416;13.428;2023-02-28T00:56:56;6.43;;;3.58;;
56083;SDS011;41958;52.416;13.428;2023-02-28T00:59:21;6.53;;;3.55;;
56083;SDS011;41958;52.416;13.428;2023-02-28T01:01:46;3.90;;;3.45;;
56083;SDS011;41958;52.416;13.428;2023-02-28T01:04:12;5.10;;;3.17;;
56083;SDS011;41958;52.416;13.428;2023-02-28T01:06:37;5.47;;;3.33;;
56083;SDS011;41958;52.416;13.428;2023-02-28T01:09:04;4.75;;;3.22;;
56083;SDS011;41958;52.416;13.428;2023-02-28T01:11:30;4.38;;;3.05;;
56083;SDS011;41958;52.416;13.428;2023-02-28T01:13:56;5.13;;;3.20;;
56083;SDS011;41958;52.416;13.428;2023-02-28T01:16:21;6.82;;;3.40;;
56083;SDS011;41958;52.416;13.428;2023-02-28T01:18:47;5.68;;;3.17;;
56083;SDS011;41958;52.416;13.428;2023-02-28T01:21:14;4.30;;;3.03;;
56083;SDS011;41958;52.416;13.428;2023-02-28T01:23:41;6.35;;;3.63;;
56083;SDS011;41958;52.416;13.428;2023-02-28T01:26:08;5.78;;;4.05;;
56083;SDS011;41958;52.416;13.428;2023-02-28T01:28:36;6.38;;;3.60;;
56083;SDS011;41958;52.416;13.428;2023-02-28T01:31:01;6.20;;;3.78;;
56083;SDS011;41958;52.416;13.428;2023-02-28T01:33:26;6.35;;;3.13;;
56083;SDS011;41958;52.416;13.428;2023-02-28T01:35:59;6.63;;;3.80;;
56083;SDS011;41958;52.416;13.428;2023-02-28T01:38:24;5.65;;;3.95;;
56083;SDS011;41958;52.416;13.428;2023-02-28T01:40:50;6.03;;;3.25;;
56083;SDS011;41958;52.416;13.428;2023-02-28T01:43:20;4.93;;;3.78;;
56083;SDS011;41958;52.416;13.428;2023-02-28T01:45:52;6.28;;;3.50;;
56083;SDS011;41958;52.416;13.428;2023-02-28T01:48:19;9.02;;;3.90;;
56083;SDS011;41958;52.416;13.428;2023-02-28T01:50:50;4.38;;;3.28;;
56083;SDS011;41958;52.416;13.428;2023-02-28T01:53:17;5.53;;;3.30;;
56083;SDS011;41958;52.416;13.428;2023-02-28T01:55:48;5.05;;;3.33;;
56083;SDS011;41958;52.416;13.428;2023-02-28T01:58:16;4.80;;;3.28;;
56083;SDS011;41958;52.416;13.428;2023-02-28T02:00:42;5.72;;;3.17;;
56083;SDS011;41958;52.416;13.428;2023-02-28T02:03:08;7.00;;;3.70;;
56083;SDS011;41958;52.416;13.428;2023-02-28T02:05:38;6.85;;;3.38;;
56083;SDS011;41958;52.416;13.428;2023-02-28T02:08:05;4.97;;;3.58;;
56083;SDS011;41958;52.416;13.428;2023-02-28T02:10:44;5.38;;;3.50;;
56083;SDS011;41958;52.416;13.428;2023-02-28T02:13:25;5.15;;;3.22;;
56083;SDS011;41958;52.416;13.428;2023-02-28T02:16:15;6.80;;;3.42;;
56083;SDS011;41958;52.416;13.428;2023-02-28T02:18:51;6.18;;;3.35;;
56083;SDS011;41958;52.416;13.428;2023-02-28T02:21:27;5.85;;;3.17;;
56083;SDS011;41958;52.416;13.428;2023-02-28T02:29:55;5.80;;;3.60;;
56083;SDS011;41958;52.416;13.428;2023-02-28T02:35:31;8.48;;;3.40;;
56083;SDS011;41958;52.416;13.428;2023-02-28T02:40:35;6.40;;;3.80;;
56083;SDS011;41958;52.416;13.428;2023-02-28T02:43:08;7.38;;;3.80;;
56083;SDS011;41958;52.416;13.428;2023-02-28T02:45:52;5.28;;;3.50;;
56083;SDS011;41958;52.416;13.428;2023-02-28T02:48:21;6.80;;;3.47;;
56083;SDS011;41958;52.416;13.428;2023-02-28T02:50:53;6.72;;;3.88;;
56083;SDS011;41958;52.416;13.428;2023-02-28T02:53:22;4.22;;;3.33;;
56083;SDS011;41958;52.416;13.428;2023-02-28T02:55:55;5.65;;;3.20;;
56083;SDS011;41958;52.416;13.428;2023-02-28T02:58:27;6.90;;;3.92;;
56083;SDS011;41958;52.416;13.428;2023-02-28T03:00:57;6.18;;;3.67;;
56083;SDS011;41958;52.416;13.428;2023-02-28T03:03:25;7.32;;;4.03;;
56083;SDS011;41958;52.416;13.428;2023-02-28T03:05:57;4.32;;;3.10;;
56083;SDS011;41958;52.416;13.428;2023-02-28T03:08:24;6.30;;;3.53;;
56083;SDS011;41958;52.416;13.428;2023-02-28T03:10:51;6.72;;;3.97;;
56083;SDS011;41958;52.416;13.428;2023-02-28T03:19:39;6.60;;;4.15;;
56083;SDS011;41958;52.416;13.428;2023-02-28T03:22:14;8.85;;;4.78;;
56083;SDS011;41958;52.416;13.428;2023-02-28T03:24:51;11.20;;;4.88;;
56083;SDS011;41958;52.416;13.428;2023-02-28T03:27:34;7.47;;;4.50;;
56083;SDS011;41958;52.416;13.428;2023-02-28T03:30:17;9.23;;;5.10;;
56083;SDS011;41958;52.416;13.428;2023-02-28T03:32:57;6.57;;;4.90;;
56083;SDS011;41958;52.416;13.428;2023-02-28T03:35:33;7.47;;;4.47;;
56083;SDS011;41958;52.416;13.428;2023-02-28T03:38:13;9.60;;;4.90;;
56083;SDS011;41958;52.416;13.428;2023-02-28T03:40:47;8.70;;;4.43;;
56083;SDS011;41958;52.416;13.428;2023-02-28T03:43:20;10.80;;;4.63;;
56083;SDS011;41958;52.416;13.428;2023-02-28T03:45:50;8.52;;;4.70;;
56083;SDS011;41958;52.416;13.428;2023-02-28T03:48:28;7.63;;;4.10;;
56083;SDS011;41958;52.416;13.428;2023-02-28T03:51:00;7.93;;;4.35;;
56083;SDS011;41958;52.416;13.428;2023-02-28T03:53:34;10.13;;;5.18;;
56083;SDS011;41958;52.416;13.428;2023-02-28T03:56:14;6.95;;;4.40;;
56083;SDS011;41958;52.416;13.428;2023-02-28T03:58:51;8.40;;;4.40;;
56083;SDS011;41958;52.416;13.428;2023-02-28T04:04:09;7.57;;;4.50;;
56083;SDS011;41958;52.416;13.428;2023-02-28T04:06:35;9.05;;;4.90;;
56083;SDS011;41958;52.416;13.428;2023-02-28T04:09:01;9.23;;;4.60;;
56083;SDS011;41958;52.416;13.428;2023-02-28T04:14:11;8.18;;;5.07;;
56083;SDS011;41958;52.416;13.428;2023-02-28T04:16:38;9.43;;;5.07;;
56083;SDS011;41958;52.416;13.428;2023-02-28T04:19:06;10.15;;;5.03;;
56083;SDS011;41958;52.416;13.428;2023-02-28T04:21:35;9.15;;;5.18;;
56083;SDS011;41958;52.416;13.428;2023-02-28T04:24:09;9.43;;;4.82;;
56083;SDS011;41958;52.416;13.428;2023-02-28T04:26:39;9.75;;;5.40;;
56083;SDS011;41958;52.416;13.428;2023-02-28T04:29:06;10.60;;;5.05;;
56083;SDS011;41958;52.416;13.428;2023-02-28T04:31:32;8.57;;;5.65;;
56083;SDS011;41958;52.416;13.428;2023-02-28T04:33:58;10.35;;;5.05;;
56083;SDS011;41958;52.416;13.428;2023-02-28T04:36:23;10.80;;;5.07;;
56083;SDS011;41958;52.416;13.428;2023-02-28T04:38:49;8.85;;;5.35;;
56083;SDS011;41958;52.416;13.428;2023-02-28T04:41:14;10.73;;;5.30;;
56083;SDS011;41958;52.416;13.428;2023-02-28T04:43:41;8.43;;;4.78;;
56083;SDS011;41958;52.416;13.428;2023-02-28T04:46:06;10.23;;;5.95;;
56083;SDS011;41958;52.416;13.428;2023-02-28T04:48:33;11.13;;;5.68;;
56083;SDS011;41958;52.416;13.428;2023-02-28T04:51:01;11.88;;;5.65;;
56083;SDS011;41958;52.416;13.428;2023-02-28T04:53:31;10.93;;;5.22;;
56083;SDS011;41958;52.416;13.428;2023-02-28T04:55:56;11.10;;;5.60;;
56083;SDS011;41958;52.416;13.428;2023-02-28T04:58:22;10.18;;;5.05;;
56083;SDS011;41958;52.416;13.428;2023-02-28T05:00:51;11.05;;;5.35;;
56083;SDS011;41958;52.416;13.428;2023-02-28T05:03:16;10.65;;;6.22;;
56083;SDS011;41958;52.416;13.428;2023-02-28T05:05:42;9.90;;;5.30;;
56083;SDS011;41958;52.416;13.428;2023-02-28T05:08:07;10.57;;;5.75;;
56083;SDS011;41958;52.416;13.428;2023-02-28T05:10:34;13.60;;;6.50;;
56083;SDS011;41958;52.416;13.428;2023-02-28T05:12:59;9.23;;;4.68;;
56083;SDS011;41958;52.416;13.428;2023-02-28T05:15:25;7.53;;;4.65;;
56083;SDS011;41958;52.416;13.428;2023-02-28T05:17:50;10.43;;;5.10;;
56083;SDS011;41958;52.416;13.428;2023-02-28T05:20:15;9.60;;;5.57;;
56083;SDS011;41958;52.416;13.428;2023-02-28T05:22:41;11.60;;;5.40;;
56083;SDS011;41958;52.416;13.428;2023-02-28T05:25:06;9.00;;;5.72;;
56083;SDS011;41958;52.416;13.428;2023-02-28T05:27:34;10.18;;;5.18;;
56083;SDS011;41958;52.416;13.428;2023-02-28T05:29:59;10.57;;;5.95;;
56083;SDS011;41958;52.416;13.428;2023-02-28T05:32:28;9.38;;;5.70;;
56083;SDS011;41958;52.416;13.428;2023-02-28T05:34:53;11.63;;;6.28;;
56083;SDS011;41958;52.416;13.428;2023-02-28T05:37:18;10.48;;;5.43;;
56083;SDS011;41958;52.416;13.428;2023-02-28T05:39:44;11.40;;;5.47;;
56083;SDS011;41958;52.416;13.428;2023-02-28T05:42:09;10.52;;;5.13;;
56083;SDS011;41958;52.416;13.428;2023-02-28T05:44:35;13.07;;;5.43;;
56083;SDS011;41958;52.416;13.428;2023-02-28T05:47:00;10.43;;;5.57;;
56083;SDS011;41958;52.416;13.428;2023-02-28T05:49:26;13.52;;;6.53;;
56083;SDS011;41958;52.416;13.428;2023-02-28T05:51:51;10.75;;;5.18;;
56083;SDS011;41958;52.416;13.428;2023-02-28T05:54:16;10.48;;;5.38;;
56083;SDS011;41958;52.416;13.428;2023-02-28T05:56:41;11.13;;;5.28;;
56083;SDS011;41958;52.416;13.428;2023-02-28T05:59:09;12.02;;;5.50;;
56083;SDS011;41958;52.416;13.428;2023-02-28T06:01:36;11.98;;;5.80;;
56083;SDS011;41958;52.416;13.428;2023-02-28T06:04:03;10.35;;;5.47;;
56083;SDS011;41958;52.416;13.428;2023-02-28T06:06:30;11.13;;;5.80;;
56083;SDS011;41958;52.416;13.428;2023-02-28T06:08:56;11.32;;;5.50;;
56083;SDS011;41958;52.416;13.428;2023-02-28T06:11:22;10.73;;;5.40;;
56083;SDS011;41958;52.416;13.428;2023-02-28T06:13:52;10.88;;;5.80;;
56083;SDS011;41958;52.416;13.428;2023-02-28T06:16:20;11.25;;;6.03;;
56083;SDS011;41958;52.416;13.428;2023-02-28T06:18:45;10.25;;;5.40;;
56083;SDS011;41958;52.416;13.428;2023-02-28T06:21:11;13.32;;;6.05;;
56083;SDS011;41958;52.416;13.428;2023-02-28T06:23:37;12.15;;;5.60;;
56083;SDS011;41958;52.416;13.428;2023-02-28T06:26:03;9.18;;;5.63;;
56083;SDS011;41958;52.416;13.428;2023-02-28T06:28:28;15.32;;;6.05;;
56083;SDS011;41958;52.416;13.428;2023-02-28T06:30:53;12.60;;;6.55;;
56083;SDS011;41958;52.416;13.428;2023-02-28T06:33:19;10.52;;;5.80;;
56083;SDS011;41958;52.416;13.428;2023-02-28T06:35:44;11.13;;;6.43;;
56083;SDS011;41958;52.416;13.428;2023-02-28T06:38:11;11.38;;;6.07;;
56083;SDS011;41958;52.416;13.428;2023-02-28T06:40:36;13.23;;;6.60;;
56083;SDS011;41958;52.416;13.428;2023-02-28T06:43:02;10.13;;;6.20;;
56083;SDS011;41958;52.416;13.428;2023-02-28T06:45:27;11.60;;;6.45;;
56083;SDS011;41958;52.416;13.428;2023-02-28T06:47:53;14.20;;;6.63;;
56083;SDS011;41958;52.416;13.428;2023-02-28T06:50:18;14.95;;;7.50;;
56083;SDS011;41958;52.416;13.428;2023-02-28T06:52:45;12.48;;;6.57;;
56083;SDS011;41958;52.416;13.428;2023-02-28T06:55:10;13.38;;;6.15;;
56083;SDS011;41958;52.416;13.428;2023-02-28T06:57:36;12.15;;;6.70;;
56083;SDS011;41958;52.416;13.428;2023-02-28T07:00:03;13.55;;;7.18;;
56083;SDS011;41958;52.416;13.428;2023-02-28T07:02:32;13.70;;;6.82;;
56083;SDS011;41958;52.416;13.428;2023-02-28T07:04:57;15.05;;;7.13;;
56083;SDS011;41958;52.416;13.428;2023-02-28T07:07:23;12.93;;;7.28;;
56083;SDS011;41958;52.416;13.428;2023-02-28T07:09:48;13.77;;;7.20;;
56083;SDS011;41958;52.416;13.428;2023-02-28T07:12:13;16.50;;;7.40;;
56083;SDS011;41958;52.416;13.428;2023-02-28T07:14:39;16.38;;;7.53;;
56083;SDS011;41958;52.416;13.428;2023-02-28T07:17:06;13.40;;;7.38;;
56083;SDS011;41958;52.416;13.428;2023-02-28T07:19:32;14.70;;;7.82;;
56083;SDS011;41958;52.416;13.428;2023-02-28T07:21:57;14.55;;;6.75;;
56083;SDS011;41958;52.416;13.428;2023-02-28T07:24:23;15.98;;;8.05;;
56083;SDS011;41958;52.416;13.428;2023-02-28T07:26:50;11.27;;;6.53;;
56083;SDS011;41958;52.416;13.428;2023-02-28T07:29:16;15.20;;;6.97;;
56083;SDS011;41958;52.416;13.428;2023-02-28T07:31:41;14.07;;;6.63;;
56083;SDS011;41958;52.416;13.428;2023-02-28T07:34:06;12.45;;;7.28;;
56083;SDS011;41958;52.416;13.428;2023-02-28T07:36:31;11.98;;;6.43;;
56083;SDS011;41958;52.416;13.428;2023-02-28T07:38:57;15.15;;;7.38;;
56083;SDS011;41958;52.416;13.428;2023-02-28T07:41:23;12.55;;;7.00;;
56083;SDS011;41958;52.416;13.428;2023-02-28T07:43:53;14.43;;;7.88;;
56083;SDS011;41958;52.416;13.428;2023-02-28T07:46:20;17.20;;;8.07;;
56083;SDS011;41958;52.416;13.428;2023-02-28T07:48:46;11.90;;;6.70;;
56083;SDS011;41958;52.416;13.428;2023-02-28T07:51:11;15.85;;;7.35;;
56083;SDS011;41958;52.416;13.428;2023-02-28T07:53:37;13.13;;;7.22;;
56083;SDS011;41958;52.416;13.428;2023-02-28T07:56:02;12.25;;;7.18;;
56083;SDS011;41958;52.416;13.428;2023-02-28T07:58:28;10.98;;;5.10;;
56083;SDS011;41958;52.416;13.428;2023-02-28T08:00:55;8.55;;;4.63;;
56083;SDS011;41958;52.416;13.428;2023-02-28T08:03:21;9.43;;;4.40;;
56083;SDS011;41958;52.416;13.428;2023-02-28T08:05:47;10.52;;;4.32;;
56083;SDS011;41958;52.416;13.428;2023-02-28T08:08:13;7.68;;;4.18;;
56083;SDS011;41958;52.416;13.428;2023-02-28T08:10:39;6.70;;;3.33;;
56083;SDS011;41958;52.416;13.428;2023-02-28T08:13:05;6.82;;;4.07;;
56083;SDS011;41958;52.416;13.428;2023-02-28T08:15:30;9.07;;;3.80;;
56083;SDS011;41958;52.416;13.428;2023-02-28T08:17:56;6.57;;;3.80;;
56083;SDS011;41958;52.416;13.428;2023-02-28T08:20:22;5.60;;;2.95;;
56083;SDS011;41958;52.416;13.428;2023-02-28T08:22:48;5.45;;;3.10;;
56083;SDS011;41958;52.416;13.428;2023-02-28T08:25:13;6.05;;;3.85;;
56083;SDS011;41958;52.416;13.428;2023-02-28T08:27:39;8.98;;;3.53;;
56083;SDS011;41958;52.416;13.428;2023-02-28T08:30:04;8.07;;;4.00;;
56083;SDS011;41958;52.416;13.428;2023-02-28T08:32:31;11.02;;;4.35;;
56083;SDS011;41958;52.416;13.428;2023-02-28T08:34:57;7.40;;;4.07;;
56083;SDS011;41958;52.416;13.428;2023-02-28T08:37:23;8.25;;;4.82;;
56083;SDS011;41958;52.416;13.428;2023-02-28T08:39:48;8.02;;;4.15;;
56083;SDS011;41958;52.416;13.428;2023-02-28T08:42:14;8.05;;;4.35;;
56083;SDS011;41958;52.416;13.428;2023-02-28T08:44:39;6.05;;;3.80;;
56083;SDS011;41958;52.416;13.428;2023-02-28T08:47:05;5.88;;;3.75;;
56083;SDS011;41958;52.416;13.428;2023-02-28T08:49:30;6.43;;;3.55;;
56083;SDS011;41958;52.416;13.428;2023-02-28T08:51:56;7.97;;;3.80;;
56083;SDS011;41958;52.416;13.428;2023-02-28T08:54:22;6.60;;;3.63;;
56083;SDS011;41958;52.416;13.428;2023-02-28T08:56:47;6.88;;;3.80;;
56083;SDS011;41958;52.416;13.428;2023-02-28T08:59:13;5.88;;;3.60;;
56083;SDS011;41958;52.416;13.428;2023-02-28T09:01:38;7.20;;;3.47;;
56083;SDS011;41958;52.416;13.428;2023-02-28T09:04:03;7.28;;;3.00;;
56083;SDS011;41958;52.416;13.428;2023-02-28T09:06:31;5.93;;;2.90;;
56083;SDS011;41958;52.416;13.428;2023-02-28T09:08:57;5.28;;;2.67;;
56083;SDS011;41958;52.416;13.428;2023-02-28T09:11:27;3.60;;;2.30;;
56083;SDS011;41958;52.416;13.428;2023-02-28T09:13:53;3.13;;;2.13;;
56083;SDS011;41958;52.416;13.428;2023-02-28T09:16:20;3.33;;;2.38;;
56083;SDS011;41958;52.416;13.428;2023-02-28T09:18:45;3.65;;;1.95;;
56083;SDS011;41958;52.416;13.428;2023-02-28T09:21:12;3.22;;;2.03;;
56083;SDS011;41958;52.416;13.428;2023-02-28T09:23:39;4.63;;;2.17;;
56083;SDS011;41958;52.416;13.428;2023-02-28T09:26:05;6.35;;;2.80;;
56083;SDS011;41958;52.416;13.428;2023-02-28T09:28:31;3.40;;;2.20;;
56083;SDS011;41958;52.416;13.428;2023-02-28T09:30:56;2.67;;;1.98;;
56083;SDS011;41958;52.416;13.428;2023-02-28T09:33:25;3.67;;;2.28;;
56083;SDS011;41958;52.416;13.428;2023-02-28T09:35:51;5.15;;;1.83;;
56083;SDS011;41958;52.416;13.428;2023-02-28T09:38:23;3.47;;;1.83;;
56083;SDS011;41958;52.416;13.428;2023-02-28T09:40:50;2.83;;;1.50;;
56083;SDS011;41958;52.416;13.428;2023-02-28T09:43:17;6.40;;;2.08;;
56083;SDS011;41958;52.416;13.428;2023-02-28T09:45:48;5.28;;;2.35;;
56083;SDS011;41958;52.416;13.428;2023-02-28T09:48:24;4.35;;;1.60;;
56083;SDS011;41958;52.416;13.428;2023-02-28T09:50:55;2.15;;;1.40;;
56083;SDS011;41958;52.416;13.428;2023-02-28T09:53:27;3.47;;;1.42;;
56083;SDS011;41958;52.416;13.428;2023-02-28T09:55:59;3.22;;;1.45;;
56083;SDS011;41958;52.416;13.428;2023-02-28T09:58:32;3.97;;;1.48;;
56083;SDS011;41958;52.416;13.428;2023-02-28T10:01:05;2.97;;;1.48;;
56083;SDS011;41958;52.416;13.428;2023-02-28T10:03:42;2.08;;;1.35;;
56083;SDS011;41958;52.416;13.428;2023-02-28T10:06:13;4.30;;;1.20;;
56083;SDS011;41958;52.416;13.428;2023-02-28T10:08:51;3.20;;;1.90;;
56083;SDS011;41958;52.416;13.428;2023-02-28T10:11:23;4.53;;;1.02;;
56083;SDS011;41958;52.416;13.428;2023-02-28T10:13:55;1.42;;;0.90;;
56083;SDS011;41958;52.416;13.428;2023-02-28T10:16:29;1.75;;;1.27;;
56083;SDS011;41958;52.416;13.428;2023-02-28T10:19:03;2.63;;;1.08;;
56083;SDS011;41958;52.416;13.428;2023-02-28T10:21:52;2.75;;;1.10;;
56083;SDS011;41958;52.416;13.428;2023-02-28T10:24:25;2.15;;;1.23;;
56083;SDS011;41958;52.416;13.428;2023-02-28T10:26:56;2.40;;;1.20;;
56083;SDS011;41958;52.416;13.428;2023-02-28T10:29:25;5.03;;;1.27;;
56083;SDS011;41958;52.416;13.428;2023-02-28T10:31:51;2.30;;;0.80;;
56083;SDS011;41958;52.416;13.428;2023-02-28T10:34:17;4.38;;;1.20;;
56083;SDS011;41958;52.416;13.428;2023-02-28T10:36:42;2.10;;;1.30;;
56083;SDS011;41958;52.416;13.428;2023-02-28T10:44:28;2.30;;;1.70;;
56083;SDS011;41958;52.416;13.428;2023-02-28T10:46:54;2.80;;;1.50;;
56083;SDS011;41958;52.416;13.428;2023-02-28T10:49:21;2.35;;;1.23;;
56083;SDS011;41958;52.416;13.428;2023-02-28T10:54:23;3.40;;;1.33;;
56083;SDS011;41958;52.416;13.428;2023-02-28T10:57:11;3.13;;;1.42;;
56083;SDS011;41958;52.416;13.428;2023-02-28T10:59:42;2.95;;;1.60;;
56083;SDS011;41958;52.416;13.428;2023-02-28T11:04:56;2.10;;;1.33;;
56083;SDS011;41958;52.416;13.428;2023-02-28T11:07:22;2.33;;;1.67;;
56083;SDS011;41958;52.416;13.428;2023-02-28T11:09:56;2.28;;;1.13;;
56083;SDS011;41958;52.416;13.428;2023-02-28T11:12:30;2.25;;;1.40;;
56083;SDS011;41958;52.416;13.428;2023-02-28T11:15:02;3.55;;;1.58;;
56083;SDS011;41958;52.416;13.428;2023-02-28T11:17:31;4.57;;;1.70;;
56083;SDS011;41958;52.416;13.428;2023-02-28T11:19:58;4.57;;;2.15;;
56083;SDS011;41958;52.416;13.428;2023-02-28T11:22:32;9.85;;;1.92;;
56083;SDS011;41958;52.416;13.428;2023-02-28T11:25:06;3.25;;;1.45;;
56083;SDS011;41958;52.416;13.428;2023-02-28T11:27:51;3.60;;;1.58;;
56083;SDS011;41958;52.416;13.428;2023-02-28T11:30:32;1.67;;;1.58;;
56083;SDS011;41958;52.416;13.428;2023-02-28T11:33:20;2.83;;;1.50;;
56083;SDS011;41958;52.416;13.428;2023-02-28T11:35:53;3.08;;;1.50;;
56083;SDS011;41958;52.416;13.428;2023-02-28T11:38:24;3.05;;;1.48;;
56083;SDS011;41958;52.416;13.428;2023-02-28T11:43:28;4.65;;;1.58;;
56083;SDS011;41958;52.416;13.428;2023-02-28T11:48:50;2.90;;;1.48;;
56083;SDS011;41958;52.416;13.428;2023-02-28T11:54:12;3.85;;;1.67;;
56083;SDS011;41958;52.416;13.428;2023-02-28T11:56:44;3.85;;;1.42;;
56083;SDS011;41958;52.416;13.428;2023-02-28T11:59:24;2.85;;;1.50;;
56083;SDS011;41958;52.416;13.428;2023-02-28T12:02:20;3.75;;;1.70;;
56083;SDS011;41958;52.416;13.428;2023-02-28T12:07:57;4.28;;;1.75;;
56083;SDS011;41958;52.416;13.428;2023-02-28T12:10:31;5.43;;;1.80;;
56083;SDS011;41958;52.416;13.428;2023-02-28T12:15:58;2.78;;;1.67;;
56083;SDS011;41958;52.416;13.428;2023-02-28T12:18:42;1.50;;;1.40;;
56083;SDS011;41958;52.416;13.428;2023-02-28T12:21:24;4.20;;;2.00;;
56083;SDS011;41958;52.416;13.428;2023-02-28T12:26:44;2.40;;;1.80;;
56083;SDS011;41958;52.416;13.428;2023-02-28T12:34:39;4.75;;;1.92;;
56083;SDS011;41958;52.416;13.428;2023-02-28T12:37:10;3.88;;;2.20;;
56083;SDS011;41958;52.416;13.428;2023-02-28T12:39:44;2.50;;;2.13;;
56083;SDS011;41958;52.416;13.428;2023-02-28T12:42:26;3.67;;;1.90;;
56083;SDS011;41958;52.416;13.428;2023-02-28T12:44:59;5.40;;;1.80;;
56083;SDS011;41958;52.416;13.428;2023-02-28T12:47:27;2.47;;;1.70;;
56083;SDS011;41958;52.416;13.428;2023-02-28T12:50:08;2.53;;;1.90;;
56083;SDS011;41958;52.416;13.428;2023-02-28T12:55:34;4.30;;;1.90;;
56083;SDS011;41958;52.416;13.428;2023-02-28T12:58:13;4.03;;;1.88;;
56083;SDS011;41958;52.416;13.428;2023-02-28T13:01:32;4.45;;;1.77;;
56083;SDS011;41958;52.416;13.428;2023-02-28T13:04:05;3.75;;;1.83;;
56083;SDS011;41958;52.416;13.428;2023-02-28T13:09:57;4.38;;;2.00;;
56083;SDS011;41958;52.416;13.428;2023-02-28T13:12:25;3.50;;;2.00;;
56083;SDS011;41958;52.416;13.428;2023-02-28T13:14:51;2.83;;;1.75;;
56083;SDS011;41958;52.416;13.428;2023-02-28T13:17:29;5.28;;;2.30;;
56083;SDS011;41958;52.416;13.428;2023-02-28T13:19:58;4.18;;;2.00;;
56083;SDS011;41958;52.416;13.428;2023-02-28T13:24:50;4.10;;;1.90;;
56083;SDS011;41958;52.416;13.428;2023-02-28T13:27:24;4.50;;;1.58;;
56083;SDS011;41958;52.416;13.428;2023-02-28T13:29:56;3.10;;;2.15;;
56083;SDS011;41958;52.416;13.428;2023-02-28T13:39:50;5.55;;;1.67;;
56083;SDS011;41958;52.416;13.428;2023-02-28T13:42:32;7.05;;;1.95;;
56083;SDS011;41958;52.416;13.428;2023-02-28T13:47:27;3.93;;;2.23;;
56083;SDS011;41958;52.416;13.428;2023-02-28T13:50:14;6.93;;;1.75;;
56083;SDS011;41958;52.416;13.428;2023-02-28T13:52:43;5.30;;;2.08;;
56083;SDS011;41958;52.416;13.428;2023-02-28T13:55:26;4.57;;;2.15;;
56083;SDS011;41958;52.416;13.428;2023-02-28T13:58:00;3.00;;;1.98;;
56083;SDS011;41958;52.416;13.428;2023-02-28T14:03:18;5.30;;;2.00;;
56083;SDS011;41958;52.416;13.428;2023-02-28T14:06:16;4.53;;;2.40;;
56083;SDS011;41958;52.416;13.428;2023-02-28T14:09:00;3.22;;;1.98;;
56083;SDS011;41958;52.416;13.428;2023-02-28T14:11:36;4.40;;;1.83;;
56083;SDS011;41958;52.416;13.428;2023-02-28T14:14:04;2.67;;;1.83;;
56083;SDS011;41958;52.416;13.428;2023-02-28T14:16:41;3.00;;;1.60;;
56083;SDS011;41958;52.416;13.428;2023-02-28T14:19:17;3.35;;;1.80;;
56083;SDS011;41958;52.416;13.428;2023-02-28T14:21:53;2.90;;;2.00;;
56083;SDS011;41958;52.416;13.428;2023-02-28T14:33:13;4.03;;;1.63;;
56083;SDS011;41958;52.416;13.428;2023-02-28T14:35:56;4.05;;;2.05;;
56083;SDS011;41958;52.416;13.428;2023-02-28T14:38:29;6.38;;;1.85;;
56083;SDS011;41958;52.416;13.428;2023-02-28T14:43:26;4.07;;;1.80;;
56083;SDS011;41958;52.416;13.428;2023-02-28T14:45:57;2.80;;;1.80;;
56083;SDS011;41958;52.416;13.428;2023-02-28T14:48:24;2.90;;;1.70;;
56083;SDS011;41958;52.416;13.428;2023-02-28T14:50:52;2.53;;;1.95;;
56083;SDS011;41958;52.416;13.428;2023-02-28T14:53:20;4.70;;;1.98;;
56083;SDS011;41958;52.416;13.428;2023-02-28T14:55:48;5.20;;;1.98;;
56083;SDS011;41958;52.416;13.428;2023-02-28T14:58:33;3.15;;;2.05;;
56083;SDS011;41958;52.416;13.428;2023-02-28T15:01:00;3.38;;;1.90;;
56083;SDS011;41958;52.416;13.428;2023-02-28T15:03:31;3.00;;;1.90;;
56083;SDS011;41958;52.416;13.428;2023-02-28T15:06:02;2.60;;;1.77;;
56083;SDS011;41958;52.416;13.428;2023-02-28T15:08:29;5.63;;;2.15;;
56083;SDS011;41958;52.416;13.428;2023-02-28T15:11:01;3.78;;;2.13;;
56083;SDS011;41958;52.416;13.428;2023-02-28T15:13:36;3.45;;;2.35;;
56083;SDS011;41958;52.416;13.428;2023-02-28T15:16:05;3.45;;;2.03;;
56083;SDS011;41958;52.416;13.428;2023-02-28T15:23:40;3.67;;;2.00;;
56083;SDS011;41958;52.416;13.428;2023-02-28T15:26:09;4.75;;;2.65;;
56083;SDS011;41958;52.416;13.428;2023-02-28T15:28:39;3.90;;;2.20;;
56083;SDS011;41958;52.416;13.428;2023-02-28T15:31:16;3.35;;;2.08;;
56083;SDS011;41958;52.416;13.428;2023-02-28T15:33:55;4.85;;;2.33;;
56083;SDS011;41958;52.416;13.428;2023-02-28T15:36:24;4.25;;;2.22;;
56083;SDS011;41958;52.416;13.428;2023-02-28T15:38:52;2.83;;;2.25;;
56083;SDS011;41958;52.416;13.428;2023-02-28T15:41:25;5.35;;;2.75;;
56083;SDS011;41958;52.416;13.428;2023-02-28T15:46:58;5.55;;;2.67;;
56083;SDS011;41958;52.416;13.428;2023-02-28T15:49:24;3.35;;;2.00;;
56083;SDS011;41958;52.416;13.428;2023-02-28T15:51:50;3.75;;;2.20;;
56083;SDS011;41958;52.416;13.428;2023-02-28T15:54:23;4.97;;;2.55;;
56083;SDS011;41958;52.416;13.428;2023-02-28T15:59:28;4.95;;;2.33;;
56083;SDS011;41958;52.416;13.428;2023-02-28T16:07:33;3.80;;;2.40;;
56083;SDS011;41958;52.416;13.428;2023-02-28T16:09:59;3.90;;;2.35;;
56083;SDS011;41958;52.416;13.428;2023-02-28T16:12:26;8.25;;;2.45;;
56083;SDS011;41958;52.416;13.428;2023-02-28T16:14:54;10.52;;;3.90;;
56083;SDS011;41958;52.416;13.428;2023-02-28T16:17:22;9.82;;;4.03;;
56083;SDS011;41958;52.416;13.428;2023-02-28T16:19:50;6.72;;;2.92;;
56083;SDS011;41958;52.416;13.428;2023-02-28T16:22:15;9.65;;;3.40;;
56083;SDS011;41958;52.416;13.428;2023-02-28T16:24:41;4.88;;;2.38;;
56083;SDS011;41958;52.416;13.428;2023-02-28T16:27:06;4.85;;;2.78;;
56083;SDS011;41958;52.416;13.428;2023-02-28T16:29:40;6.68;;;3.42;;